sensor_id;sensor_type;location;lat;lon;timestamp;P1;durP1;ratioP1;P2;durP2;ratioP2
69034;SDS011;56091;55.756;37.412;2022-07-15T00:04:25;8.63;;;6.20;;
69034;SDS011;56091;55.756;37.412;2022-07-15T00:09:26;8.25;;;5.80;;
69034;SDS011;56091;55.756;37.412;2022-07-15T00:14:46;11.03;;;6.23;;
69034;SDS011;56091;55.756;37.412;2022-07-15T00:19:46;10.82;;;6.32;;
69034;SDS011;56091;55.756;37.412;2022-07-15T00:24:47;12.50;;;6.80;;
69034;SDS011;56091;55.756;37.412;2022-07-15T00:29:48;10.40;;;6.90;;
69034;SDS011;56091;55.756;37.412;2022-07-15T00:34:50;12.25;;;6.50;;
69034;SDS011;56091;55.756;37.412;2022-07-15T00:39:54;9.80;;;6.27;;
69034;SDS011;56091;55.756;37.412;2022-07-15T00:44:55;10.20;;;6.53;;
69034;SDS011;56091;55.756;37.412;2022-07-15T00:49:55;15.13;;;6.80;;
69034;SDS011;56091;55.756;37.412;2022-07-15T00:54:57;12.27;;;7.45;;
69034;SDS011;56091;55.756;37.412;2022-07-15T01:00:01;11.87;;;7.63;;
69034;SDS011;56091;55.756;37.412;2022-07-15T01:05:05;10.77;;;7.28;;
69034;SDS011;56091;55.756;37.412;2022-07-15T01:10:09;13.93;;;7.27;;
69034;SDS011;56091;55.756;37.412;2022-07-15T01:15:11;11.68;;;7.10;;
69034;SDS011;56091;55.756;37.412;2022-07-15T01:20:18;11.87;;;7.23;;
69034;SDS011;56091;55.756;37.412;2022-07-15T01:25:30;10.23;;;6.65;;
69034;SDS011;56091;55.756;37.412;2022-07-15T01:30:31;11.67;;;7.03;;
69034;SDS011;56091;55.756;37.412;2022-07-15T01:35:32;10.88;;;6.55;;
69034;SDS011;56091;55.756;37.412;2022-07-15T01:40:33;11.77;;;6.20;;
69034;SDS011;56091;55.756;37.412;2022-07-15T01:45:35;12.25;;;6.97;;
69034;SDS011;56091;55.756;37.412;2022-07-15T01:50:36;11.10;;;6.30;;
69034;SDS011;56091;55.756;37.412;2022-07-15T01:55:44;9.43;;;6.47;;
69034;SDS011;56091;55.756;37.412;2022-07-15T02:00:45;10.67;;;6.63;;
69034;SDS011;56091;55.756;37.412;2022-07-15T02:05:46;13.80;;;6.68;;
69034;SDS011;56091;55.756;37.412;2022-07-15T02:10:48;10.63;;;5.97;;
69034;SDS011;56091;55.756;37.412;2022-07-15T02:15:53;10.93;;;6.50;;
69034;SDS011;56091;55.756;37.412;2022-07-15T02:20:54;9.00;;;5.83;;
69034;SDS011;56091;55.756;37.412;2022-07-15T02:25:55;8.88;;;5.60;;
69034;SDS011;56091;55.756;37.412;2022-07-15T02:30:59;8.27;;;5.40;;
69034;SDS011;56091;55.756;37.412;2022-07-15T02:36:01;8.13;;;5.55;;
69034;SDS011;56091;55.756;37.412;2022-07-15T02:41:03;10.13;;;5.40;;
69034;SDS011;56091;55.756;37.412;2022-07-15T02:46:06;16.00;;;5.53;;
69034;SDS011;56091;55.756;37.412;2022-07-15T02:51:08;7.43;;;4.77;;
69034;SDS011;56091;55.756;37.412;2022-07-15T02:56:11;12.43;;;4.93;;
69034;SDS011;56091;55.756;37.412;2022-07-15T03:01:12;9.50;;;4.97;;
69034;SDS011;56091;55.756;37.412;2022-07-15T03:06:13;10.85;;;5.03;;
69034;SDS011;56091;55.756;37.412;2022-07-15T03:11:14;9.43;;;4.93;;
69034;SDS011;56091;55.756;37.412;2022-07-15T03:16:15;8.85;;;4.85;;
69034;SDS011;56091;55.756;37.412;2022-07-15T03:21:20;10.17;;;5.50;;
69034;SDS011;56091;55.756;37.412;2022-07-15T03:26:23;8.80;;;5.45;;
69034;SDS011;56091;55.756;37.412;2022-07-15T03:31:24;8.47;;;5.10;;
69034;SDS011;56091;55.756;37.412;2022-07-15T03:36:26;11.15;;;4.82;;
69034;SDS011;56091;55.756;37.412;2022-07-15T03:41:28;8.30;;;5.23;;
69034;SDS011;56091;55.756;37.412;2022-07-15T03:46:30;10.38;;;4.80;;
69034;SDS011;56091;55.756;37.412;2022-07-15T03:51:34;8.20;;;4.80;;
69034;SDS011;56091;55.756;37.412;2022-07-15T03:56:35;8.63;;;5.35;;
69034;SDS011;56091;55.756;37.412;2022-07-15T04:01:36;7.40;;;5.00;;
69034;SDS011;56091;55.756;37.412;2022-07-15T04:06:37;9.82;;;4.32;;
69034;SDS011;56091;55.756;37.412;2022-07-15T04:11:40;7.00;;;4.10;;
69034;SDS011;56091;55.756;37.412;2022-07-15T04:16:43;6.80;;;4.20;;
69034;SDS011;56091;55.756;37.412;2022-07-15T04:22:03;10.53;;;4.63;;
69034;SDS011;56091;55.756;37.412;2022-07-15T04:27:12;7.95;;;4.10;;
69034;SDS011;56091;55.756;37.412;2022-07-15T04:32:13;6.57;;;4.03;;
69034;SDS011;56091;55.756;37.412;2022-07-15T04:37:19;7.93;;;3.88;;
69034;SDS011;56091;55.756;37.412;2022-07-15T04:42:32;7.80;;;3.60;;
69034;SDS011;56091;55.756;37.412;2022-07-15T04:47:33;6.07;;;3.70;;
69034;SDS011;56091;55.756;37.412;2022-07-15T04:52:42;8.90;;;3.80;;
69034;SDS011;56091;55.756;37.412;2022-07-15T04:57:45;6.70;;;3.65;;
69034;SDS011;56091;55.756;37.412;2022-07-15T05:02:49;6.67;;;3.70;;
69034;SDS011;56091;55.756;37.412;2022-07-15T05:07:51;5.93;;;3.38;;
69034;SDS011;56091;55.756;37.412;2022-07-15T05:12:52;8.03;;;3.60;;
69034;SDS011;56091;55.756;37.412;2022-07-15T05:17:53;8.57;;;3.90;;
69034;SDS011;56091;55.756;37.412;2022-07-15T05:22:55;6.30;;;3.57;;
69034;SDS011;56091;55.756;37.412;2022-07-15T05:27:58;6.85;;;3.58;;
69034;SDS011;56091;55.756;37.412;2022-07-15T05:32:59;6.30;;;3.20;;
69034;SDS011;56091;55.756;37.412;2022-07-15T05:38:00;8.02;;;2.97;;
69034;SDS011;56091;55.756;37.412;2022-07-15T05:43:04;9.33;;;2.87;;
69034;SDS011;56091;55.756;37.412;2022-07-15T05:48:11;6.70;;;2.95;;
69034;SDS011;56091;55.756;37.412;2022-07-15T05:53:20;5.70;;;2.70;;
69034;SDS011;56091;55.756;37.412;2022-07-15T05:58:22;5.72;;;2.67;;
69034;SDS011;56091;55.756;37.412;2022-07-15T06:03:23;6.47;;;3.07;;
69034;SDS011;56091;55.756;37.412;2022-07-15T06:08:24;6.35;;;2.80;;
69034;SDS011;56091;55.756;37.412;2022-07-15T06:13:25;6.03;;;2.77;;
69034;SDS011;56091;55.756;37.412;2022-07-15T06:18:28;5.80;;;2.90;;
69034;SDS011;56091;55.756;37.412;2022-07-15T06:23:32;4.97;;;2.80;;
69034;SDS011;56091;55.756;37.412;2022-07-15T06:28:34;6.38;;;2.95;;
69034;SDS011;56091;55.756;37.412;2022-07-15T06:33:35;7.10;;;3.20;;
69034;SDS011;56091;55.756;37.412;2022-07-15T06:38:38;6.47;;;3.30;;
69034;SDS011;56091;55.756;37.412;2022-07-15T06:43:39;8.47;;;3.10;;
69034;SDS011;56091;55.756;37.412;2022-07-15T06:48:44;5.20;;;3.00;;
69034;SDS011;56091;55.756;37.412;2022-07-15T06:53:45;6.20;;;3.00;;
69034;SDS011;56091;55.756;37.412;2022-07-15T06:58:46;6.82;;;2.90;;
69034;SDS011;56091;55.756;37.412;2022-07-15T07:03:47;7.23;;;3.20;;
69034;SDS011;56091;55.756;37.412;2022-07-15T07:08:48;8.53;;;3.47;;
69034;SDS011;56091;55.756;37.412;2022-07-15T07:13:50;5.53;;;3.13;;
69034;SDS011;56091;55.756;37.412;2022-07-15T07:18:52;5.50;;;2.97;;
69034;SDS011;56091;55.756;37.412;2022-07-15T07:23:53;8.73;;;3.10;;
69034;SDS011;56091;55.756;37.412;2022-07-15T07:28:53;7.93;;;3.00;;
69034;SDS011;56091;55.756;37.412;2022-07-15T07:33:55;6.50;;;2.95;;
69034;SDS011;56091;55.756;37.412;2022-07-15T07:38:57;6.93;;;2.80;;
69034;SDS011;56091;55.756;37.412;2022-07-15T07:44:00;7.68;;;2.72;;
69034;SDS011;56091;55.756;37.412;2022-07-15T07:49:01;5.63;;;2.40;;
69034;SDS011;56091;55.756;37.412;2022-07-15T07:54:02;5.68;;;2.40;;
69034;SDS011;56091;55.756;37.412;2022-07-15T07:59:03;4.63;;;2.30;;
69034;SDS011;56091;55.756;37.412;2022-07-15T08:04:04;5.85;;;2.50;;
69034;SDS011;56091;55.756;37.412;2022-07-15T08:09:05;8.13;;;2.80;;
69034;SDS011;56091;55.756;37.412;2022-07-15T08:14:06;5.65;;;2.53;;
69034;SDS011;56091;55.756;37.412;2022-07-15T08:19:07;7.13;;;2.40;;
69034;SDS011;56091;55.756;37.412;2022-07-15T08:24:09;8.68;;;2.30;;
69034;SDS011;56091;55.756;37.412;2022-07-15T08:29:11;5.70;;;2.20;;
69034;SDS011;56091;55.756;37.412;2022-07-15T08:34:12;5.35;;;2.60;;
69034;SDS011;56091;55.756;37.412;2022-07-15T08:39:13;5.47;;;2.30;;
69034;SDS011;56091;55.756;37.412;2022-07-15T08:44:13;6.22;;;2.70;;
69034;SDS011;56091;55.756;37.412;2022-07-15T08:49:16;6.47;;;2.40;;
69034;SDS011;56091;55.756;37.412;2022-07-15T08:54:19;6.10;;;2.30;;
69034;SDS011;56091;55.756;37.412;2022-07-15T08:59:20;6.57;;;2.30;;
69034;SDS011;56091;55.756;37.412;2022-07-15T09:04:21;8.60;;;2.40;;
69034;SDS011;56091;55.756;37.412;2022-07-15T09:09:26;7.30;;;2.30;;
69034;SDS011;56091;55.756;37.412;2022-07-15T09:14:38;6.75;;;2.40;;
69034;SDS011;56091;55.756;37.412;2022-07-15T09:25:06;4.90;;;2.22;;
69034;SDS011;56091;55.756;37.412;2022-07-15T09:30:17;6.90;;;2.73;;
69034;SDS011;56091;55.756;37.412;2022-07-15T09:35:41;6.30;;;2.28;;
69034;SDS011;56091;55.756;37.412;2022-07-15T09:41:01;4.83;;;2.20;;
69034;SDS011;56091;55.756;37.412;2022-07-15T09:46:02;5.30;;;1.88;;
69034;SDS011;56091;55.756;37.412;2022-07-15T09:51:07;7.17;;;2.70;;
69034;SDS011;56091;55.756;37.412;2022-07-15T09:56:10;5.45;;;2.00;;
69034;SDS011;56091;55.756;37.412;2022-07-15T10:01:13;5.40;;;2.40;;
69034;SDS011;56091;55.756;37.412;2022-07-15T10:06:14;5.65;;;1.90;;
69034;SDS011;56091;55.756;37.412;2022-07-15T10:11:15;5.70;;;2.23;;
69034;SDS011;56091;55.756;37.412;2022-07-15T10:16:20;5.53;;;2.28;;
69034;SDS011;56091;55.756;37.412;2022-07-15T10:21:38;5.20;;;2.30;;
69034;SDS011;56091;55.756;37.412;2022-07-15T10:27:01;7.70;;;2.45;;
69034;SDS011;56091;55.756;37.412;2022-07-15T10:32:15;6.43;;;2.23;;
69034;SDS011;56091;55.756;37.412;2022-07-15T10:37:16;6.27;;;2.60;;
69034;SDS011;56091;55.756;37.412;2022-07-15T10:42:17;6.37;;;2.37;;
69034;SDS011;56091;55.756;37.412;2022-07-15T10:47:19;5.38;;;2.40;;
69034;SDS011;56091;55.756;37.412;2022-07-15T10:52:28;5.90;;;2.30;;
69034;SDS011;56091;55.756;37.412;2022-07-15T11:03:02;7.43;;;2.20;;
69034;SDS011;56091;55.756;37.412;2022-07-15T11:13:36;5.93;;;2.30;;
69034;SDS011;56091;55.756;37.412;2022-07-15T11:18:47;5.50;;;2.30;;
69034;SDS011;56091;55.756;37.412;2022-07-15T11:23:52;5.47;;;2.30;;
69034;SDS011;56091;55.756;37.412;2022-07-15T11:28:55;5.53;;;2.10;;
69034;SDS011;56091;55.756;37.412;2022-07-15T11:33:58;5.82;;;2.30;;
69034;SDS011;56091;55.756;37.412;2022-07-15T11:38:58;7.60;;;2.60;;
69034;SDS011;56091;55.756;37.412;2022-07-15T11:44:00;5.95;;;2.38;;
69034;SDS011;56091;55.756;37.412;2022-07-15T11:49:25;5.43;;;2.27;;
69034;SDS011;56091;55.756;37.412;2022-07-15T11:54:27;4.85;;;2.30;;
69034;SDS011;56091;55.756;37.412;2022-07-15T11:59:28;5.97;;;2.50;;
69034;SDS011;56091;55.756;37.412;2022-07-15T12:04:30;7.65;;;2.50;;
69034;SDS011;56091;55.756;37.412;2022-07-15T12:09:41;8.60;;;2.50;;
69034;SDS011;56091;55.756;37.412;2022-07-15T12:14:45;7.38;;;2.88;;
69034;SDS011;56091;55.756;37.412;2022-07-15T12:19:52;5.67;;;2.50;;
69034;SDS011;56091;55.756;37.412;2022-07-15T12:25:04;6.22;;;2.65;;
69034;SDS011;56091;55.756;37.412;2022-07-15T12:30:18;11.17;;;4.43;;
69034;SDS011;56091;55.756;37.412;2022-07-15T12:35:18;7.72;;;5.82;;
69034;SDS011;56091;55.756;37.412;2022-07-15T12:40:21;7.07;;;3.57;;
69034;SDS011;56091;55.756;37.412;2022-07-15T12:50:26;9.63;;;6.53;;
69034;SDS011;56091;55.756;37.412;2022-07-15T12:55:29;8.77;;;4.80;;
69034;SDS011;56091;55.756;37.412;2022-07-15T13:00:31;10.17;;;5.97;;
69034;SDS011;56091;55.756;37.412;2022-07-15T13:05:37;11.40;;;5.72;;
69034;SDS011;56091;55.756;37.412;2022-07-15T13:10:39;8.33;;;3.00;;
69034;SDS011;56091;55.756;37.412;2022-07-15T13:15:42;6.50;;;5.32;;
69034;SDS011;56091;55.756;37.412;2022-07-15T13:20:44;9.17;;;5.07;;
69034;SDS011;56091;55.756;37.412;2022-07-15T13:25:46;6.70;;;5.40;;
69034;SDS011;56091;55.756;37.412;2022-07-15T13:30:48;8.05;;;5.80;;
69034;SDS011;56091;55.756;37.412;2022-07-15T13:35:50;9.10;;;6.00;;
69034;SDS011;56091;55.756;37.412;2022-07-15T13:40:50;9.45;;;6.40;;
69034;SDS011;56091;55.756;37.412;2022-07-15T13:45:51;7.30;;;5.63;;
69034;SDS011;56091;55.756;37.412;2022-07-15T13:50:52;9.32;;;3.55;;
69034;SDS011;56091;55.756;37.412;2022-07-15T13:56:12;6.63;;;2.40;;
69034;SDS011;56091;55.756;37.412;2022-07-15T14:01:12;7.90;;;2.90;;
69034;SDS011;56091;55.756;37.412;2022-07-15T14:06:13;7.90;;;2.67;;
69034;SDS011;56091;55.756;37.412;2022-07-15T14:11:17;6.32;;;2.08;;
69034;SDS011;56091;55.756;37.412;2022-07-15T14:16:18;6.37;;;2.00;;
69034;SDS011;56091;55.756;37.412;2022-07-15T14:21:19;5.53;;;2.47;;
69034;SDS011;56091;55.756;37.412;2022-07-15T14:26:21;10.63;;;2.42;;
69034;SDS011;56091;55.756;37.412;2022-07-15T14:31:23;8.00;;;6.20;;
69034;SDS011;56091;55.756;37.412;2022-07-15T14:36:38;7.50;;;5.55;;
69034;SDS011;56091;55.756;37.412;2022-07-15T14:41:48;8.80;;;6.17;;
69034;SDS011;56091;55.756;37.412;2022-07-15T14:46:49;10.15;;;2.28;;
69034;SDS011;56091;55.756;37.412;2022-07-15T14:51:50;7.00;;;2.40;;
69034;SDS011;56091;55.756;37.412;2022-07-15T14:56:51;9.25;;;5.50;;
69034;SDS011;56091;55.756;37.412;2022-07-15T15:01:52;9.07;;;3.70;;
69034;SDS011;56091;55.756;37.412;2022-07-15T15:06:53;8.18;;;5.30;;
69034;SDS011;56091;55.756;37.412;2022-07-15T15:11:54;7.80;;;4.10;;
69034;SDS011;56091;55.756;37.412;2022-07-15T15:16:55;5.35;;;2.45;;
69034;SDS011;56091;55.756;37.412;2022-07-15T15:21:56;7.40;;;2.50;;
69034;SDS011;56091;55.756;37.412;2022-07-15T15:26:57;8.73;;;2.00;;
69034;SDS011;56091;55.756;37.412;2022-07-15T15:31:59;5.20;;;1.50;;
69034;SDS011;56091;55.756;37.412;2022-07-15T15:36:59;7.47;;;1.60;;
69034;SDS011;56091;55.756;37.412;2022-07-15T15:47:11;6.05;;;1.70;;
69034;SDS011;56091;55.756;37.412;2022-07-15T15:52:12;8.10;;;1.90;;
69034;SDS011;56091;55.756;37.412;2022-07-15T15:57:19;5.20;;;1.70;;
69034;SDS011;56091;55.756;37.412;2022-07-15T16:02:22;4.83;;;2.00;;
69034;SDS011;56091;55.756;37.412;2022-07-15T16:07:23;10.50;;;2.17;;
69034;SDS011;56091;55.756;37.412;2022-07-15T16:12:24;6.88;;;4.28;;
69034;SDS011;56091;55.756;37.412;2022-07-15T16:17:25;9.43;;;4.00;;
69034;SDS011;56091;55.756;37.412;2022-07-15T16:22:25;7.88;;;3.85;;
69034;SDS011;56091;55.756;37.412;2022-07-15T16:27:45;8.90;;;3.60;;
69034;SDS011;56091;55.756;37.412;2022-07-15T16:32:49;8.32;;;2.08;;
69034;SDS011;56091;55.756;37.412;2022-07-15T16:38:00;5.27;;;1.70;;
69034;SDS011;56091;55.756;37.412;2022-07-15T16:43:02;6.55;;;1.60;;
69034;SDS011;56091;55.756;37.412;2022-07-15T16:48:06;6.30;;;1.60;;
69034;SDS011;56091;55.756;37.412;2022-07-15T16:53:07;5.22;;;1.88;;
69034;SDS011;56091;55.756;37.412;2022-07-15T16:58:07;6.97;;;2.10;;
69034;SDS011;56091;55.756;37.412;2022-07-15T17:08:22;7.83;;;2.40;;
69034;SDS011;56091;55.756;37.412;2022-07-15T17:13:23;8.50;;;2.70;;
69034;SDS011;56091;55.756;37.412;2022-07-15T17:18:23;7.93;;;1.97;;
69034;SDS011;56091;55.756;37.412;2022-07-15T17:23:25;7.70;;;2.22;;
69034;SDS011;56091;55.756;37.412;2022-07-15T17:28:28;8.17;;;2.00;;
69034;SDS011;56091;55.756;37.412;2022-07-15T17:33:29;7.18;;;1.80;;
69034;SDS011;56091;55.756;37.412;2022-07-15T17:38:31;9.10;;;2.10;;
69034;SDS011;56091;55.756;37.412;2022-07-15T17:43:32;6.93;;;2.30;;
69034;SDS011;56091;55.756;37.412;2022-07-15T17:48:33;6.90;;;2.17;;
69034;SDS011;56091;55.756;37.412;2022-07-15T17:53:34;9.18;;;2.40;;
69034;SDS011;56091;55.756;37.412;2022-07-15T17:58:35;5.67;;;1.93;;
69034;SDS011;56091;55.756;37.412;2022-07-15T18:03:35;7.47;;;1.85;;
69034;SDS011;56091;55.756;37.412;2022-07-15T18:08:36;7.93;;;1.87;;
69034;SDS011;56091;55.756;37.412;2022-07-15T18:13:37;7.53;;;2.10;;
69034;SDS011;56091;55.756;37.412;2022-07-15T18:18:38;9.93;;;2.50;;
69034;SDS011;56091;55.756;37.412;2022-07-15T18:23:39;7.03;;;2.45;;
69034;SDS011;56091;55.756;37.412;2022-07-15T18:28:40;7.47;;;2.10;;
69034;SDS011;56091;55.756;37.412;2022-07-15T18:33:41;5.45;;;1.70;;
69034;SDS011;56091;55.756;37.412;2022-07-15T18:38:42;7.13;;;1.70;;
69034;SDS011;56091;55.756;37.412;2022-07-15T18:43:43;9.63;;;1.70;;
69034;SDS011;56091;55.756;37.412;2022-07-15T18:48:44;5.30;;;1.88;;
69034;SDS011;56091;55.756;37.412;2022-07-15T18:53:44;7.90;;;1.80;;
69034;SDS011;56091;55.756;37.412;2022-07-15T18:58:45;7.90;;;2.00;;
69034;SDS011;56091;55.756;37.412;2022-07-15T19:03:46;7.57;;;2.03;;
69034;SDS011;56091;55.756;37.412;2022-07-15T19:08:47;6.78;;;1.80;;
69034;SDS011;56091;55.756;37.412;2022-07-15T19:13:48;6.90;;;2.17;;
69034;SDS011;56091;55.756;37.412;2022-07-15T19:18:49;7.40;;;2.30;;
69034;SDS011;56091;55.756;37.412;2022-07-15T19:23:50;10.07;;;1.90;;
69034;SDS011;56091;55.756;37.412;2022-07-15T19:28:51;6.20;;;2.05;;
69034;SDS011;56091;55.756;37.412;2022-07-15T19:33:52;7.97;;;2.40;;
69034;SDS011;56091;55.756;37.412;2022-07-15T19:38:53;5.93;;;1.73;;
69034;SDS011;56091;55.756;37.412;2022-07-15T19:43:53;6.57;;;2.00;;
69034;SDS011;56091;55.756;37.412;2022-07-15T19:48:54;6.95;;;2.05;;
69034;SDS011;56091;55.756;37.412;2022-07-15T19:53:55;5.07;;;1.57;;
69034;SDS011;56091;55.756;37.412;2022-07-15T19:58:56;8.23;;;2.30;;
69034;SDS011;56091;55.756;37.412;2022-07-15T20:04:15;9.02;;;1.85;;
69034;SDS011;56091;55.756;37.412;2022-07-15T20:09:16;5.80;;;2.00;;
69034;SDS011;56091;55.756;37.412;2022-07-15T20:14:17;6.22;;;1.83;;
69034;SDS011;56091;55.756;37.412;2022-07-15T20:19:18;6.70;;;2.00;;
69034;SDS011;56091;55.756;37.412;2022-07-15T20:24:19;7.38;;;1.90;;
69034;SDS011;56091;55.756;37.412;2022-07-15T20:29:20;5.07;;;2.00;;
69034;SDS011;56091;55.756;37.412;2022-07-15T20:34:21;7.50;;;2.30;;
69034;SDS011;56091;55.756;37.412;2022-07-15T20:39:22;7.37;;;2.13;;
69034;SDS011;56091;55.756;37.412;2022-07-15T20:44:23;8.95;;;2.40;;
69034;SDS011;56091;55.756;37.412;2022-07-15T20:49:24;8.87;;;2.10;;
69034;SDS011;56091;55.756;37.412;2022-07-15T20:54:25;7.78;;;2.00;;
69034;SDS011;56091;55.756;37.412;2022-07-15T20:59:28;8.03;;;2.40;;
69034;SDS011;56091;55.756;37.412;2022-07-15T21:04:29;10.20;;;2.20;;
69034;SDS011;56091;55.756;37.412;2022-07-15T21:09:30;7.23;;;2.67;;
69034;SDS011;56091;55.756;37.412;2022-07-15T21:14:31;9.57;;;2.43;;
69034;SDS011;56091;55.756;37.412;2022-07-15T21:19:32;11.20;;;2.60;;
69034;SDS011;56091;55.756;37.412;2022-07-15T21:24:33;7.60;;;2.30;;
69034;SDS011;56091;55.756;37.412;2022-07-15T21:29:54;6.53;;;2.00;;
69034;SDS011;56091;55.756;37.412;2022-07-15T21:34:55;6.27;;;2.03;;
69034;SDS011;56091;55.756;37.412;2022-07-15T21:39:56;8.48;;;2.50;;
69034;SDS011;56091;55.756;37.412;2022-07-15T21:44:57;9.03;;;2.50;;
69034;SDS011;56091;55.756;37.412;2022-07-15T21:49:58;6.95;;;2.05;;
69034;SDS011;56091;55.756;37.412;2022-07-15T21:54:59;13.30;;;2.50;;
69034;SDS011;56091;55.756;37.412;2022-07-15T22:00:08;9.05;;;2.38;;
69034;SDS011;56091;55.756;37.412;2022-07-15T22:05:14;10.87;;;3.00;;
69034;SDS011;56091;55.756;37.412;2022-07-15T22:10:17;7.75;;;2.50;;
69034;SDS011;56091;55.756;37.412;2022-07-15T22:15:18;8.33;;;2.37;;
69034;SDS011;56091;55.756;37.412;2022-07-15T22:20:19;8.60;;;2.37;;
69034;SDS011;56091;55.756;37.412;2022-07-15T22:25:20;7.23;;;2.33;;
69034;SDS011;56091;55.756;37.412;2022-07-15T22:30:20;8.55;;;2.60;;
69034;SDS011;56091;55.756;37.412;2022-07-15T22:35:21;6.70;;;2.63;;
69034;SDS011;56091;55.756;37.412;2022-07-15T22:40:22;7.68;;;2.92;;
69034;SDS011;56091;55.756;37.412;2022-07-15T22:45:23;10.87;;;2.70;;
69034;SDS011;56091;55.756;37.412;2022-07-15T22:50:24;9.00;;;2.70;;
69034;SDS011;56091;55.756;37.412;2022-07-15T22:55:25;10.93;;;2.67;;
69034;SDS011;56091;55.756;37.412;2022-07-15T23:00:26;7.87;;;2.70;;
69034;SDS011;56091;55.756;37.412;2022-07-15T23:05:28;7.35;;;2.60;;
69034;SDS011;56091;55.756;37.412;2022-07-15T23:10:30;7.90;;;2.70;;
69034;SDS011;56091;55.756;37.412;2022-07-15T23:15:31;7.32;;;2.92;;
69034;SDS011;56091;55.756;37.412;2022-07-15T23:20:31;8.43;;;2.90;;
69034;SDS011;56091;55.756;37.412;2022-07-15T23:25:32;6.97;;;2.80;;
69034;SDS011;56091;55.756;37.412;2022-07-15T23:30:33;8.00;;;3.13;;
69034;SDS011;56091;55.756;37.412;2022-07-15T23:35:34;10.18;;;3.35;;
69034;SDS011;56091;55.756;37.412;2022-07-15T23:40:35;9.30;;;2.90;;
69034;SDS011;56091;55.756;37.412;2022-07-15T23:45:36;10.17;;;2.80;;
69034;SDS011;56091;55.756;37.412;2022-07-15T23:50:36;9.13;;;3.17;;
69034;SDS011;56091;55.756;37.412;2022-07-15T23:55:37;7.85;;;2.92;;
